sensor_id;sensor_type;location;lat;lon;timestamp;P1;durP1;ratioP1;P2;durP2;ratioP2
44720;SDS011;30450;52.534;13.398;2022-12-20T00:01:32;22.45;;;14.52;;
44720;SDS011;30450;52.534;13.398;2022-12-20T00:03:58;26.58;;;15.90;;
44720;SDS011;30450;52.534;13.398;2022-12-20T00:06:25;23.27;;;15.00;;
44720;SDS011;30450;52.534;13.398;2022-12-20T00:08:54;24.58;;;15.82;;
44720;SDS011;30450;52.534;13.398;2022-12-20T00:11:21;21.10;;;14.70;;
44720;SDS011;30450;52.534;13.398;2022-12-20T00:13:47;24.20;;;14.80;;
44720;SDS011;30450;52.534;13.398;2022-12-20T00:16:20;20.83;;;14.02;;
44720;SDS011;30450;52.534;13.398;2022-12-20T00:18:49;23.42;;;15.00;;
44720;SDS011;30450;52.534;13.398;2022-12-20T00:21:16;26.58;;;15.75;;
44720;SDS011;30450;52.534;13.398;2022-12-20T00:23:43;21.35;;;14.05;;
44720;SDS011;30450;52.534;13.398;2022-12-20T00:26:10;20.92;;;13.77;;
44720;SDS011;30450;52.534;13.398;2022-12-20T00:28:37;23.38;;;15.13;;
44720;SDS011;30450;52.534;13.398;2022-12-20T00:31:03;21.45;;;14.23;;
44720;SDS011;30450;52.534;13.398;2022-12-20T00:33:30;27.35;;;16.83;;
44720;SDS011;30450;52.534;13.398;2022-12-20T00:35:56;23.55;;;14.20;;
44720;SDS011;30450;52.534;13.398;2022-12-20T00:38:22;26.67;;;14.90;;
44720;SDS011;30450;52.534;13.398;2022-12-20T00:41:02;23.83;;;14.40;;
44720;SDS011;30450;52.534;13.398;2022-12-20T00:43:29;22.73;;;14.63;;
44720;SDS011;30450;52.534;13.398;2022-12-20T00:45:55;24.23;;;14.60;;
44720;SDS011;30450;52.534;13.398;2022-12-20T00:48:21;22.10;;;14.43;;
44720;SDS011;30450;52.534;13.398;2022-12-20T00:50:47;24.88;;;13.85;;
44720;SDS011;30450;52.534;13.398;2022-12-20T00:53:15;21.95;;;13.43;;
44720;SDS011;30450;52.534;13.398;2022-12-20T00:55:45;22.60;;;13.75;;
44720;SDS011;30450;52.534;13.398;2022-12-20T00:58:11;20.67;;;14.43;;
44720;SDS011;30450;52.534;13.398;2022-12-20T01:00:37;24.63;;;14.05;;
44720;SDS011;30450;52.534;13.398;2022-12-20T01:03:03;20.13;;;14.18;;
44720;SDS011;30450;52.534;13.398;2022-12-20T01:05:29;21.17;;;13.52;;
44720;SDS011;30450;52.534;13.398;2022-12-20T01:07:56;18.90;;;12.40;;
44720;SDS011;30450;52.534;13.398;2022-12-20T01:10:22;26.50;;;14.50;;
44720;SDS011;30450;52.534;13.398;2022-12-20T01:12:48;23.35;;;14.20;;
44720;SDS011;30450;52.534;13.398;2022-12-20T01:15:14;22.52;;;13.05;;
44720;SDS011;30450;52.534;13.398;2022-12-20T01:17:40;21.90;;;13.13;;
44720;SDS011;30450;52.534;13.398;2022-12-20T01:20:06;21.75;;;14.50;;
44720;SDS011;30450;52.534;13.398;2022-12-20T01:22:32;20.25;;;12.75;;
44720;SDS011;30450;52.534;13.398;2022-12-20T01:24:57;22.67;;;13.80;;
44720;SDS011;30450;52.534;13.398;2022-12-20T01:27:23;18.95;;;12.48;;
44720;SDS011;30450;52.534;13.398;2022-12-20T01:29:49;23.52;;;13.65;;
44720;SDS011;30450;52.534;13.398;2022-12-20T01:32:17;22.92;;;13.30;;
44720;SDS011;30450;52.534;13.398;2022-12-20T01:34:42;19.73;;;12.30;;
44720;SDS011;30450;52.534;13.398;2022-12-20T01:37:08;24.05;;;15.02;;
44720;SDS011;30450;52.534;13.398;2022-12-20T01:39:37;27.08;;;15.00;;
44720;SDS011;30450;52.534;13.398;2022-12-20T01:42:03;24.08;;;15.30;;
44720;SDS011;30450;52.534;13.398;2022-12-20T01:46:55;21.35;;;14.15;;
44720;SDS011;30450;52.534;13.398;2022-12-20T01:49:29;24.58;;;14.65;;
44720;SDS011;30450;52.534;13.398;2022-12-20T01:51:58;20.45;;;13.43;;
44720;SDS011;30450;52.534;13.398;2022-12-20T01:57:05;20.38;;;13.27;;
44720;SDS011;30450;52.534;13.398;2022-12-20T01:59:32;20.35;;;12.85;;
44720;SDS011;30450;52.534;13.398;2022-12-20T02:02:02;19.30;;;13.30;;
44720;SDS011;30450;52.534;13.398;2022-12-20T02:04:29;21.73;;;11.98;;
44720;SDS011;30450;52.534;13.398;2022-12-20T02:06:55;19.27;;;11.45;;
44720;SDS011;30450;52.534;13.398;2022-12-20T02:09:22;20.05;;;13.38;;
44720;SDS011;30450;52.534;13.398;2022-12-20T02:20:00;22.27;;;14.10;;
44720;SDS011;30450;52.534;13.398;2022-12-20T02:27:53;22.05;;;12.48;;
44720;SDS011;30450;52.534;13.398;2022-12-20T02:32:58;18.40;;;12.60;;
44720;SDS011;30450;52.534;13.398;2022-12-20T02:35:26;19.13;;;12.35;;
44720;SDS011;30450;52.534;13.398;2022-12-20T02:37:54;18.75;;;12.70;;
44720;SDS011;30450;52.534;13.398;2022-12-20T02:40:24;22.15;;;13.00;;
44720;SDS011;30450;52.534;13.398;2022-12-20T02:42:56;20.75;;;13.05;;
44720;SDS011;30450;52.534;13.398;2022-12-20T02:45:25;19.67;;;12.48;;
44720;SDS011;30450;52.534;13.398;2022-12-20T02:47:56;19.63;;;12.18;;
44720;SDS011;30450;52.534;13.398;2022-12-20T02:50:28;18.38;;;11.80;;
44720;SDS011;30450;52.534;13.398;2022-12-20T02:52:56;18.02;;;11.85;;
44720;SDS011;30450;52.534;13.398;2022-12-20T02:55:24;18.27;;;11.93;;
44720;SDS011;30450;52.534;13.398;2022-12-20T02:57:55;20.42;;;12.18;;
44720;SDS011;30450;52.534;13.398;2022-12-20T03:00:23;19.33;;;12.15;;
44720;SDS011;30450;52.534;13.398;2022-12-20T03:02:50;20.35;;;12.50;;
44720;SDS011;30450;52.534;13.398;2022-12-20T03:05:37;18.58;;;12.27;;
44720;SDS011;30450;52.534;13.398;2022-12-20T03:08:07;20.70;;;12.77;;
44720;SDS011;30450;52.534;13.398;2022-12-20T03:10:34;21.17;;;11.70;;
44720;SDS011;30450;52.534;13.398;2022-12-20T03:13:00;17.77;;;12.25;;
44720;SDS011;30450;52.534;13.398;2022-12-20T03:15:26;18.95;;;13.77;;
44720;SDS011;30450;52.534;13.398;2022-12-20T03:17:52;22.00;;;13.85;;
44720;SDS011;30450;52.534;13.398;2022-12-20T03:20:18;17.90;;;12.63;;
44720;SDS011;30450;52.534;13.398;2022-12-20T03:22:44;18.45;;;12.38;;
44720;SDS011;30450;52.534;13.398;2022-12-20T03:25:10;20.77;;;12.35;;
44720;SDS011;30450;52.534;13.398;2022-12-20T03:27:36;20.58;;;12.52;;
44720;SDS011;30450;52.534;13.398;2022-12-20T03:30:02;16.60;;;11.57;;
44720;SDS011;30450;52.534;13.398;2022-12-20T03:32:29;18.13;;;11.95;;
44720;SDS011;30450;52.534;13.398;2022-12-20T03:34:55;17.10;;;11.43;;
44720;SDS011;30450;52.534;13.398;2022-12-20T03:37:21;19.38;;;12.38;;
44720;SDS011;30450;52.534;13.398;2022-12-20T03:39:47;19.17;;;11.88;;
44720;SDS011;30450;52.534;13.398;2022-12-20T03:42:13;18.77;;;12.25;;
44720;SDS011;30450;52.534;13.398;2022-12-20T03:44:39;16.90;;;11.55;;
44720;SDS011;30450;52.534;13.398;2022-12-20T03:47:04;18.17;;;10.68;;
44720;SDS011;30450;52.534;13.398;2022-12-20T03:49:31;17.05;;;11.70;;
44720;SDS011;30450;52.534;13.398;2022-12-20T03:51:57;16.95;;;11.50;;
44720;SDS011;30450;52.534;13.398;2022-12-20T03:54:23;17.80;;;11.43;;
44720;SDS011;30450;52.534;13.398;2022-12-20T03:56:49;17.23;;;12.18;;
44720;SDS011;30450;52.534;13.398;2022-12-20T03:59:15;17.90;;;11.90;;
44720;SDS011;30450;52.534;13.398;2022-12-20T04:01:41;16.75;;;11.48;;
44720;SDS011;30450;52.534;13.398;2022-12-20T04:04:09;18.75;;;11.48;;
44720;SDS011;30450;52.534;13.398;2022-12-20T04:06:35;18.45;;;11.32;;
44720;SDS011;30450;52.534;13.398;2022-12-20T04:09:01;19.73;;;12.60;;
44720;SDS011;30450;52.534;13.398;2022-12-20T04:11:26;18.75;;;11.95;;
44720;SDS011;30450;52.534;13.398;2022-12-20T04:13:52;18.48;;;11.25;;
44720;SDS011;30450;52.534;13.398;2022-12-20T04:16:20;19.95;;;11.15;;
44720;SDS011;30450;52.534;13.398;2022-12-20T04:18:46;16.37;;;12.20;;
44720;SDS011;30450;52.534;13.398;2022-12-20T04:21:12;16.15;;;11.00;;
44720;SDS011;30450;52.534;13.398;2022-12-20T04:23:40;15.98;;;10.90;;
44720;SDS011;30450;52.534;13.398;2022-12-20T04:26:06;17.60;;;11.77;;
44720;SDS011;30450;52.534;13.398;2022-12-20T04:28:32;17.63;;;11.48;;
44720;SDS011;30450;52.534;13.398;2022-12-20T04:30:58;17.20;;;11.20;;
44720;SDS011;30450;52.534;13.398;2022-12-20T04:33:24;15.52;;;11.35;;
44720;SDS011;30450;52.534;13.398;2022-12-20T04:35:51;19.50;;;12.77;;
44720;SDS011;30450;52.534;13.398;2022-12-20T04:38:17;17.98;;;11.85;;
44720;SDS011;30450;52.534;13.398;2022-12-20T04:40:44;20.67;;;12.00;;
44720;SDS011;30450;52.534;13.398;2022-12-20T04:43:10;17.60;;;10.85;;
44720;SDS011;30450;52.534;13.398;2022-12-20T04:45:36;17.70;;;12.40;;
44720;SDS011;30450;52.534;13.398;2022-12-20T04:48:01;19.58;;;11.48;;
44720;SDS011;30450;52.534;13.398;2022-12-20T04:50:27;18.25;;;10.00;;
44720;SDS011;30450;52.534;13.398;2022-12-20T04:52:56;18.40;;;12.25;;
44720;SDS011;30450;52.534;13.398;2022-12-20T04:55:40;16.67;;;12.02;;
44720;SDS011;30450;52.534;13.398;2022-12-20T04:58:06;17.02;;;12.23;;
44720;SDS011;30450;52.534;13.398;2022-12-20T05:00:33;16.75;;;10.75;;
44720;SDS011;30450;52.534;13.398;2022-12-20T05:02:59;18.45;;;10.32;;
44720;SDS011;30450;52.534;13.398;2022-12-20T05:05:25;17.65;;;11.55;;
44720;SDS011;30450;52.534;13.398;2022-12-20T05:07:51;17.92;;;12.27;;
44720;SDS011;30450;52.534;13.398;2022-12-20T05:10:17;17.63;;;11.15;;
44720;SDS011;30450;52.534;13.398;2022-12-20T05:12:43;16.23;;;11.95;;
44720;SDS011;30450;52.534;13.398;2022-12-20T05:15:10;15.18;;;11.05;;
44720;SDS011;30450;52.534;13.398;2022-12-20T05:17:36;20.90;;;12.07;;
44720;SDS011;30450;52.534;13.398;2022-12-20T05:20:05;18.85;;;11.25;;
44720;SDS011;30450;52.534;13.398;2022-12-20T05:22:31;18.40;;;11.55;;
44720;SDS011;30450;52.534;13.398;2022-12-20T05:25:15;17.55;;;11.60;;
44720;SDS011;30450;52.534;13.398;2022-12-20T05:27:59;16.80;;;11.07;;
44720;SDS011;30450;52.534;13.398;2022-12-20T05:30:25;17.55;;;11.73;;
44720;SDS011;30450;52.534;13.398;2022-12-20T05:32:51;22.42;;;11.50;;
44720;SDS011;30450;52.534;13.398;2022-12-20T05:37:45;16.77;;;11.63;;
44720;SDS011;30450;52.534;13.398;2022-12-20T05:40:11;21.95;;;12.70;;
44720;SDS011;30450;52.534;13.398;2022-12-20T05:42:37;15.30;;;11.68;;
44720;SDS011;30450;52.534;13.398;2022-12-20T05:45:03;17.95;;;11.73;;
44720;SDS011;30450;52.534;13.398;2022-12-20T05:47:30;17.20;;;11.68;;
44720;SDS011;30450;52.534;13.398;2022-12-20T05:49:58;16.77;;;11.75;;
44720;SDS011;30450;52.534;13.398;2022-12-20T05:52:25;16.98;;;11.30;;
44720;SDS011;30450;52.534;13.398;2022-12-20T05:54:51;17.23;;;11.77;;
44720;SDS011;30450;52.534;13.398;2022-12-20T05:57:17;17.60;;;11.35;;
44720;SDS011;30450;52.534;13.398;2022-12-20T05:59:43;18.00;;;12.27;;
44720;SDS011;30450;52.534;13.398;2022-12-20T06:02:09;18.70;;;11.88;;
44720;SDS011;30450;52.534;13.398;2022-12-20T06:04:37;15.68;;;11.35;;
44720;SDS011;30450;52.534;13.398;2022-12-20T06:07:05;18.33;;;11.45;;
44720;SDS011;30450;52.534;13.398;2022-12-20T06:09:31;15.73;;;11.18;;
44720;SDS011;30450;52.534;13.398;2022-12-20T06:11:57;19.10;;;11.38;;
44720;SDS011;30450;52.534;13.398;2022-12-20T06:14:23;15.88;;;11.25;;
44720;SDS011;30450;52.534;13.398;2022-12-20T06:16:49;18.83;;;11.70;;
44720;SDS011;30450;52.534;13.398;2022-12-20T06:19:16;20.73;;;11.68;;
44720;SDS011;30450;52.534;13.398;2022-12-20T06:21:42;16.52;;;11.45;;
44720;SDS011;30450;52.534;13.398;2022-12-20T06:24:07;20.67;;;12.65;;
44720;SDS011;30450;52.534;13.398;2022-12-20T06:26:34;17.30;;;12.10;;
44720;SDS011;30450;52.534;13.398;2022-12-20T06:29:03;17.00;;;11.82;;
44720;SDS011;30450;52.534;13.398;2022-12-20T06:31:31;19.17;;;11.38;;
44720;SDS011;30450;52.534;13.398;2022-12-20T06:33:57;17.95;;;11.90;;
44720;SDS011;30450;52.534;13.398;2022-12-20T06:36:24;19.45;;;12.02;;
44720;SDS011;30450;52.534;13.398;2022-12-20T06:38:50;18.70;;;12.00;;
44720;SDS011;30450;52.534;13.398;2022-12-20T06:41:16;16.60;;;11.88;;
44720;SDS011;30450;52.534;13.398;2022-12-20T06:43:42;19.67;;;12.50;;
44720;SDS011;30450;52.534;13.398;2022-12-20T06:46:08;19.45;;;13.20;;
44720;SDS011;30450;52.534;13.398;2022-12-20T06:48:34;17.70;;;11.75;;
44720;SDS011;30450;52.534;13.398;2022-12-20T06:50:59;18.70;;;12.90;;
44720;SDS011;30450;52.534;13.398;2022-12-20T06:53:25;17.45;;;12.18;;
44720;SDS011;30450;52.534;13.398;2022-12-20T06:55:51;20.27;;;13.48;;
44720;SDS011;30450;52.534;13.398;2022-12-20T06:58:17;21.90;;;12.93;;
44720;SDS011;30450;52.534;13.398;2022-12-20T07:00:43;21.42;;;13.82;;
44720;SDS011;30450;52.534;13.398;2022-12-20T07:03:10;21.55;;;13.85;;
44720;SDS011;30450;52.534;13.398;2022-12-20T07:05:36;19.25;;;13.32;;
44720;SDS011;30450;52.534;13.398;2022-12-20T07:08:02;20.77;;;12.82;;
44720;SDS011;30450;52.534;13.398;2022-12-20T07:10:29;23.17;;;13.23;;
44720;SDS011;30450;52.534;13.398;2022-12-20T07:12:55;22.00;;;14.32;;
44720;SDS011;30450;52.534;13.398;2022-12-20T07:15:21;19.55;;;14.05;;
44720;SDS011;30450;52.534;13.398;2022-12-20T07:17:47;21.67;;;13.80;;
44720;SDS011;30450;52.534;13.398;2022-12-20T07:20:13;21.65;;;15.02;;
44720;SDS011;30450;52.534;13.398;2022-12-20T07:22:39;19.20;;;12.10;;
44720;SDS011;30450;52.534;13.398;2022-12-20T07:25:04;20.58;;;13.27;;
44720;SDS011;30450;52.534;13.398;2022-12-20T07:27:30;19.52;;;12.68;;
44720;SDS011;30450;52.534;13.398;2022-12-20T07:29:57;26.45;;;13.15;;
44720;SDS011;30450;52.534;13.398;2022-12-20T07:32:24;18.35;;;12.65;;
44720;SDS011;30450;52.534;13.398;2022-12-20T07:34:50;22.37;;;14.43;;
44720;SDS011;30450;52.534;13.398;2022-12-20T07:37:16;17.05;;;12.77;;
44720;SDS011;30450;52.534;13.398;2022-12-20T07:39:43;22.23;;;13.40;;
44720;SDS011;30450;52.534;13.398;2022-12-20T07:42:09;23.10;;;12.93;;
44720;SDS011;30450;52.534;13.398;2022-12-20T07:44:36;24.00;;;14.23;;
44720;SDS011;30450;52.534;13.398;2022-12-20T07:47:02;22.75;;;14.82;;
44720;SDS011;30450;52.534;13.398;2022-12-20T07:49:28;21.95;;;14.10;;
44720;SDS011;30450;52.534;13.398;2022-12-20T07:51:57;20.67;;;12.85;;
44720;SDS011;30450;52.534;13.398;2022-12-20T07:54:26;21.50;;;14.07;;
44720;SDS011;30450;52.534;13.398;2022-12-20T07:56:54;19.75;;;13.52;;
44720;SDS011;30450;52.534;13.398;2022-12-20T07:59:23;24.10;;;15.05;;
44720;SDS011;30450;52.534;13.398;2022-12-20T08:01:50;20.45;;;14.80;;
44720;SDS011;30450;52.534;13.398;2022-12-20T08:04:17;22.20;;;14.40;;
44720;SDS011;30450;52.534;13.398;2022-12-20T08:06:45;24.40;;;14.63;;
44720;SDS011;30450;52.534;13.398;2022-12-20T08:09:11;20.03;;;13.80;;
44720;SDS011;30450;52.534;13.398;2022-12-20T08:11:39;23.35;;;14.80;;
44720;SDS011;30450;52.534;13.398;2022-12-20T08:14:06;23.70;;;15.32;;
44720;SDS011;30450;52.534;13.398;2022-12-20T08:16:33;22.40;;;14.63;;
44720;SDS011;30450;52.534;13.398;2022-12-20T08:18:58;26.05;;;14.27;;
44720;SDS011;30450;52.534;13.398;2022-12-20T08:21:24;29.00;;;15.73;;
44720;SDS011;30450;52.534;13.398;2022-12-20T08:23:51;23.05;;;14.77;;
44720;SDS011;30450;52.534;13.398;2022-12-20T08:26:16;21.52;;;15.45;;
44720;SDS011;30450;52.534;13.398;2022-12-20T08:28:42;25.83;;;15.73;;
44720;SDS011;30450;52.534;13.398;2022-12-20T08:31:09;20.55;;;14.63;;
44720;SDS011;30450;52.534;13.398;2022-12-20T08:33:35;24.00;;;15.98;;
44720;SDS011;30450;52.534;13.398;2022-12-20T08:36:03;23.75;;;14.85;;
44720;SDS011;30450;52.534;13.398;2022-12-20T08:38:30;22.27;;;14.38;;
44720;SDS011;30450;52.534;13.398;2022-12-20T08:41:03;25.42;;;16.55;;
44720;SDS011;30450;52.534;13.398;2022-12-20T08:43:30;22.23;;;14.90;;
44720;SDS011;30450;52.534;13.398;2022-12-20T08:45:57;20.52;;;13.93;;
44720;SDS011;30450;52.534;13.398;2022-12-20T08:48:24;21.27;;;14.73;;
44720;SDS011;30450;52.534;13.398;2022-12-20T08:50:53;23.75;;;15.48;;
44720;SDS011;30450;52.534;13.398;2022-12-20T08:53:20;27.27;;;14.63;;
44720;SDS011;30450;52.534;13.398;2022-12-20T08:55:47;21.10;;;15.98;;
44720;SDS011;30450;52.534;13.398;2022-12-20T08:58:13;28.75;;;16.00;;
44720;SDS011;30450;52.534;13.398;2022-12-20T09:00:40;21.77;;;15.30;;
44720;SDS011;30450;52.534;13.398;2022-12-20T09:03:06;27.83;;;15.45;;
44720;SDS011;30450;52.534;13.398;2022-12-20T09:05:42;25.67;;;16.33;;
44720;SDS011;30450;52.534;13.398;2022-12-20T09:08:10;23.35;;;15.55;;
44720;SDS011;30450;52.534;13.398;2022-12-20T09:10:36;26.50;;;16.13;;
44720;SDS011;30450;52.534;13.398;2022-12-20T09:13:02;26.33;;;16.27;;
44720;SDS011;30450;52.534;13.398;2022-12-20T09:15:28;23.52;;;16.00;;
44720;SDS011;30450;52.534;13.398;2022-12-20T09:17:55;25.75;;;16.83;;
44720;SDS011;30450;52.534;13.398;2022-12-20T09:20:21;22.88;;;15.52;;
44720;SDS011;30450;52.534;13.398;2022-12-20T09:22:46;25.13;;;15.23;;
44720;SDS011;30450;52.534;13.398;2022-12-20T09:25:12;23.08;;;15.65;;
44720;SDS011;30450;52.534;13.398;2022-12-20T09:27:39;26.13;;;16.27;;
44720;SDS011;30450;52.534;13.398;2022-12-20T09:30:05;23.95;;;16.08;;
44720;SDS011;30450;52.534;13.398;2022-12-20T09:32:30;28.38;;;16.00;;
44720;SDS011;30450;52.534;13.398;2022-12-20T09:34:56;25.25;;;15.48;;
44720;SDS011;30450;52.534;13.398;2022-12-20T09:37:22;21.92;;;15.00;;
44720;SDS011;30450;52.534;13.398;2022-12-20T09:39:49;22.58;;;15.57;;
44720;SDS011;30450;52.534;13.398;2022-12-20T09:42:17;20.98;;;14.02;;
44720;SDS011;30450;52.534;13.398;2022-12-20T09:44:47;24.20;;;15.10;;
44720;SDS011;30450;52.534;13.398;2022-12-20T09:47:14;22.17;;;14.70;;
44720;SDS011;30450;52.534;13.398;2022-12-20T09:49:42;25.05;;;14.48;;
44720;SDS011;30450;52.534;13.398;2022-12-20T09:59:55;22.92;;;13.68;;
44720;SDS011;30450;52.534;13.398;2022-12-20T10:02:23;22.67;;;13.73;;
44720;SDS011;30450;52.534;13.398;2022-12-20T10:04:50;20.10;;;13.97;;
44720;SDS011;30450;52.534;13.398;2022-12-20T10:07:21;23.08;;;15.40;;
44720;SDS011;30450;52.534;13.398;2022-12-20T10:23:00;22.23;;;14.02;;
44720;SDS011;30450;52.534;13.398;2022-12-20T10:25:28;21.73;;;14.20;;
44720;SDS011;30450;52.534;13.398;2022-12-20T10:27:55;22.90;;;13.88;;
44720;SDS011;30450;52.534;13.398;2022-12-20T10:30:24;21.60;;;13.68;;
44720;SDS011;30450;52.534;13.398;2022-12-20T10:32:52;21.13;;;13.73;;
44720;SDS011;30450;52.534;13.398;2022-12-20T10:40:34;22.35;;;14.15;;
44720;SDS011;30450;52.534;13.398;2022-12-20T10:43:00;18.75;;;13.70;;
44720;SDS011;30450;52.534;13.398;2022-12-20T10:45:31;21.05;;;14.13;;
44720;SDS011;30450;52.534;13.398;2022-12-20T10:47:58;22.00;;;14.40;;
44720;SDS011;30450;52.534;13.398;2022-12-20T10:50:24;18.80;;;13.55;;
44720;SDS011;30450;52.534;13.398;2022-12-20T10:53:17;21.40;;;13.45;;
44720;SDS011;30450;52.534;13.398;2022-12-20T10:55:43;19.98;;;12.77;;
44720;SDS011;30450;52.534;13.398;2022-12-20T11:01:04;18.70;;;13.32;;
44720;SDS011;30450;52.534;13.398;2022-12-20T11:03:31;20.50;;;13.75;;
44720;SDS011;30450;52.534;13.398;2022-12-20T11:05:58;21.15;;;13.27;;
44720;SDS011;30450;52.534;13.398;2022-12-20T11:08:27;20.35;;;12.23;;
44720;SDS011;30450;52.534;13.398;2022-12-20T11:13:36;20.25;;;12.73;;
44720;SDS011;30450;52.534;13.398;2022-12-20T11:16:02;21.42;;;12.38;;
44720;SDS011;30450;52.534;13.398;2022-12-20T11:23:35;22.67;;;13.52;;
44720;SDS011;30450;52.534;13.398;2022-12-20T11:28:45;20.00;;;12.25;;
44720;SDS011;30450;52.534;13.398;2022-12-20T11:39:14;24.00;;;12.48;;
44720;SDS011;30450;52.534;13.398;2022-12-20T11:46:57;18.65;;;13.35;;
44720;SDS011;30450;52.534;13.398;2022-12-20T11:52:31;19.25;;;13.20;;
44720;SDS011;30450;52.534;13.398;2022-12-20T11:55:05;18.00;;;12.80;;
44720;SDS011;30450;52.534;13.398;2022-12-20T11:57:46;18.65;;;13.80;;
44720;SDS011;30450;52.534;13.398;2022-12-20T12:00:16;18.00;;;11.30;;
44720;SDS011;30450;52.534;13.398;2022-12-20T12:02:47;17.13;;;12.23;;
44720;SDS011;30450;52.534;13.398;2022-12-20T12:05:25;18.95;;;12.18;;
44720;SDS011;30450;52.534;13.398;2022-12-20T12:07:55;19.27;;;12.93;;
44720;SDS011;30450;52.534;13.398;2022-12-20T12:10:24;16.60;;;11.48;;
44720;SDS011;30450;52.534;13.398;2022-12-20T12:13:02;17.00;;;12.67;;
44720;SDS011;30450;52.534;13.398;2022-12-20T12:15:40;17.33;;;12.32;;
44720;SDS011;30450;52.534;13.398;2022-12-20T12:18:16;20.02;;;12.98;;
44720;SDS011;30450;52.534;13.398;2022-12-20T12:21:00;17.10;;;11.65;;
44720;SDS011;30450;52.534;13.398;2022-12-20T12:28:54;19.27;;;12.60;;
44720;SDS011;30450;52.534;13.398;2022-12-20T12:34:25;20.52;;;11.75;;
44720;SDS011;30450;52.534;13.398;2022-12-20T12:37:15;17.35;;;11.65;;
44720;SDS011;30450;52.534;13.398;2022-12-20T12:42:21;21.00;;;13.27;;
44720;SDS011;30450;52.534;13.398;2022-12-20T12:44:56;19.02;;;12.05;;
44720;SDS011;30450;52.534;13.398;2022-12-20T12:47:30;18.75;;;12.65;;
44720;SDS011;30450;52.534;13.398;2022-12-20T12:49:59;16.88;;;11.55;;
44720;SDS011;30450;52.534;13.398;2022-12-20T12:54:53;17.42;;;12.52;;
44720;SDS011;30450;52.534;13.398;2022-12-20T12:57:19;17.77;;;13.57;;
44720;SDS011;30450;52.534;13.398;2022-12-20T12:59:45;18.08;;;12.30;;
44720;SDS011;30450;52.534;13.398;2022-12-20T13:09:53;19.42;;;12.95;;
44720;SDS011;30450;52.534;13.398;2022-12-20T13:17:46;18.35;;;11.93;;
44720;SDS011;30450;52.534;13.398;2022-12-20T13:22:38;17.73;;;11.07;;
44720;SDS011;30450;52.534;13.398;2022-12-20T13:25:18;17.42;;;12.00;;
44720;SDS011;30450;52.534;13.398;2022-12-20T13:27:50;16.88;;;12.30;;
44720;SDS011;30450;52.534;13.398;2022-12-20T13:42:52;20.02;;;11.88;;
44720;SDS011;30450;52.534;13.398;2022-12-20T13:45:19;21.13;;;12.77;;
44720;SDS011;30450;52.534;13.398;2022-12-20T13:47:49;21.60;;;12.32;;
44720;SDS011;30450;52.534;13.398;2022-12-20T13:50:26;18.50;;;12.38;;
44720;SDS011;30450;52.534;13.398;2022-12-20T13:52:54;17.35;;;12.10;;
44720;SDS011;30450;52.534;13.398;2022-12-20T13:55:24;18.80;;;12.17;;
44720;SDS011;30450;52.534;13.398;2022-12-20T13:57:50;16.52;;;12.50;;
44720;SDS011;30450;52.534;13.398;2022-12-20T14:00:17;19.83;;;11.63;;
44720;SDS011;30450;52.534;13.398;2022-12-20T14:02:43;16.60;;;11.60;;
44720;SDS011;30450;52.534;13.398;2022-12-20T14:05:18;17.65;;;11.55;;
44720;SDS011;30450;52.534;13.398;2022-12-20T14:07:47;18.45;;;12.43;;
44720;SDS011;30450;52.534;13.398;2022-12-20T14:10:19;15.95;;;12.00;;
44720;SDS011;30450;52.534;13.398;2022-12-20T14:12:45;18.20;;;12.32;;
44720;SDS011;30450;52.534;13.398;2022-12-20T14:15:44;18.67;;;12.32;;
44720;SDS011;30450;52.534;13.398;2022-12-20T14:18:04;19.95;;;12.93;;
44720;SDS011;30450;52.534;13.398;2022-12-20T14:20:32;14.43;;;11.48;;
44720;SDS011;30450;52.534;13.398;2022-12-20T14:23:03;21.92;;;13.25;;
44720;SDS011;30450;52.534;13.398;2022-12-20T14:27:55;17.10;;;11.40;;
44720;SDS011;30450;52.534;13.398;2022-12-20T14:30:25;18.85;;;13.00;;
44720;SDS011;30450;52.534;13.398;2022-12-20T14:32:53;21.13;;;13.70;;
44720;SDS011;30450;52.534;13.398;2022-12-20T14:35:19;20.42;;;12.88;;
44720;SDS011;30450;52.534;13.398;2022-12-20T14:37:58;18.15;;;12.85;;
44720;SDS011;30450;52.534;13.398;2022-12-20T14:40:25;18.35;;;12.18;;
44720;SDS011;30450;52.534;13.398;2022-12-20T14:42:52;17.92;;;13.35;;
44720;SDS011;30450;52.534;13.398;2022-12-20T14:45:25;20.05;;;13.55;;
44720;SDS011;30450;52.534;13.398;2022-12-20T14:50:28;22.52;;;13.52;;
44720;SDS011;30450;52.534;13.398;2022-12-20T14:52:57;20.17;;;13.55;;
44720;SDS011;30450;52.534;13.398;2022-12-20T14:55:24;18.77;;;13.93;;
44720;SDS011;30450;52.534;13.398;2022-12-20T14:57:55;19.65;;;13.18;;
44720;SDS011;30450;52.534;13.398;2022-12-20T15:00:25;22.23;;;13.95;;
44720;SDS011;30450;52.534;13.398;2022-12-20T15:05:37;21.65;;;14.13;;
44720;SDS011;30450;52.534;13.398;2022-12-20T15:10:34;24.05;;;14.75;;
44720;SDS011;30450;52.534;13.398;2022-12-20T15:13:00;22.75;;;15.50;;
44720;SDS011;30450;52.534;13.398;2022-12-20T15:15:50;23.45;;;14.88;;
44720;SDS011;30450;52.534;13.398;2022-12-20T15:18:36;20.80;;;13.55;;
44720;SDS011;30450;52.534;13.398;2022-12-20T15:21:14;22.27;;;14.40;;
44720;SDS011;30450;52.534;13.398;2022-12-20T15:23:55;21.50;;;15.23;;
44720;SDS011;30450;52.534;13.398;2022-12-20T15:26:25;25.35;;;16.08;;
44720;SDS011;30450;52.534;13.398;2022-12-20T15:28:52;26.00;;;15.05;;
44720;SDS011;30450;52.534;13.398;2022-12-20T15:31:19;22.75;;;14.77;;
44720;SDS011;30450;52.534;13.398;2022-12-20T15:33:45;22.15;;;15.63;;
44720;SDS011;30450;52.534;13.398;2022-12-20T15:36:15;22.77;;;14.68;;
44720;SDS011;30450;52.534;13.398;2022-12-20T15:38:42;24.98;;;14.68;;
44720;SDS011;30450;52.534;13.398;2022-12-20T15:41:22;21.42;;;14.27;;
44720;SDS011;30450;52.534;13.398;2022-12-20T15:44:20;24.40;;;16.20;;
44720;SDS011;30450;52.534;13.398;2022-12-20T15:46:44;23.05;;;15.02;;
44720;SDS011;30450;52.534;13.398;2022-12-20T15:49:14;24.25;;;15.52;;
44720;SDS011;30450;52.534;13.398;2022-12-20T15:51:41;22.60;;;14.95;;
44720;SDS011;30450;52.534;13.398;2022-12-20T15:54:11;25.73;;;15.95;;
44720;SDS011;30450;52.534;13.398;2022-12-20T15:56:39;24.50;;;15.95;;
44720;SDS011;30450;52.534;13.398;2022-12-20T15:59:06;23.85;;;15.43;;
44720;SDS011;30450;52.534;13.398;2022-12-20T16:01:33;22.58;;;15.23;;
44720;SDS011;30450;52.534;13.398;2022-12-20T16:04:00;24.17;;;15.57;;
44720;SDS011;30450;52.534;13.398;2022-12-20T16:06:27;22.75;;;15.52;;
44720;SDS011;30450;52.534;13.398;2022-12-20T16:08:53;24.37;;;15.47;;
44720;SDS011;30450;52.534;13.398;2022-12-20T16:11:21;27.00;;;16.15;;
44720;SDS011;30450;52.534;13.398;2022-12-20T16:16:15;20.15;;;14.27;;
44720;SDS011;30450;52.534;13.398;2022-12-20T16:18:42;26.25;;;16.33;;
44720;SDS011;30450;52.534;13.398;2022-12-20T16:21:13;23.35;;;14.82;;
44720;SDS011;30450;52.534;13.398;2022-12-20T16:23:39;21.95;;;15.65;;
44720;SDS011;30450;52.534;13.398;2022-12-20T16:26:05;25.08;;;15.77;;
44720;SDS011;30450;52.534;13.398;2022-12-20T16:28:31;27.13;;;15.45;;